createdAt,value
2022-10-26T00:00:53.136Z,13.10
2022-10-26T00:03:19.736Z,13.30
2022-10-26T00:05:46.360Z,13.30
2022-10-26T00:08:12.949Z,13.30
2022-10-26T00:10:39.561Z,13.30
2022-10-26T00:13:06.205Z,13.30
2022-10-26T00:15:32.821Z,13.10
2022-10-26T00:17:59.466Z,12.80
2022-10-26T00:20:26.123Z,12.80
2022-10-26T00:22:52.745Z,12.90
2022-10-26T00:25:19.329Z,12.80
2022-10-26T00:27:46.106Z,12.80
2022-10-26T00:30:12.886Z,12.70
2022-10-26T00:35:17.110Z,12.30
2022-10-26T00:37:51.045Z,12.40
2022-10-26T00:40:17.917Z,12.50
2022-10-26T00:42:44.595Z,12.20
2022-10-26T00:45:11.247Z,12.30
2022-10-26T00:47:37.906Z,12.40
2022-10-26T00:50:04.524Z,12.50
2022-10-26T00:52:31.143Z,12.20
2022-10-26T00:54:57.742Z,12.40
2022-10-26T00:57:24.915Z,12.20
2022-10-26T00:59:51.560Z,12.20
2022-10-26T01:02:18.170Z,12.30
2022-10-26T01:04:44.772Z,12.20
2022-10-26T01:07:11.372Z,12.30
2022-10-26T01:09:38.015Z,12.10
2022-10-26T01:12:04.678Z,12.30
2022-10-26T01:14:31.332Z,12.10
2022-10-26T01:16:58.000Z,12.30
2022-10-26T01:19:26.535Z,12.00
2022-10-26T01:21:53.194Z,12.10
2022-10-26T01:24:19.815Z,12.30
2022-10-26T01:26:46.591Z,11.90
2022-10-26T01:29:13.271Z,11.80
2022-10-26T01:31:39.861Z,11.50
2022-10-26T01:34:06.482Z,11.60
2022-10-26T01:39:04.592Z,12.00
2022-10-26T01:41:31.217Z,11.70
2022-10-26T01:43:57.814Z,12.00
2022-10-26T01:46:24.455Z,12.20
2022-10-26T01:48:51.084Z,12.20
2022-10-26T01:51:17.703Z,12.00
2022-10-26T01:53:44.334Z,11.90
2022-10-26T01:56:10.945Z,12.10
2022-10-26T01:58:37.594Z,12.10
2022-10-26T02:01:04.242Z,12.00
2022-10-26T02:03:30.969Z,12.10
2022-10-26T02:05:57.605Z,12.10
2022-10-26T02:08:24.263Z,12.00
2022-10-26T02:10:50.855Z,12.10
2022-10-26T02:13:17.491Z,12.20
2022-10-26T02:15:44.090Z,12.20
2022-10-26T02:18:10.719Z,12.20
2022-10-26T02:20:37.326Z,12.30
2022-10-26T02:23:03.912Z,11.90
2022-10-26T02:25:30.544Z,11.90
2022-10-26T02:27:57.130Z,12.00
2022-10-26T02:30:23.750Z,12.10
2022-10-26T02:32:50.377Z,11.70
2022-10-26T02:35:17.008Z,11.80
2022-10-26T02:37:43.621Z,11.90
2022-10-26T02:40:10.243Z,11.90
2022-10-26T02:42:36.860Z,11.80
2022-10-26T02:45:03.455Z,11.80
2022-10-26T02:47:30.048Z,12.00
2022-10-26T02:49:56.662Z,12.00
2022-10-26T02:52:23.285Z,11.70
2022-10-26T02:54:49.876Z,11.80
2022-10-26T02:57:16.489Z,11.80
2022-10-26T02:59:43.124Z,11.50
2022-10-26T03:02:09.723Z,11.50
2022-10-26T03:04:36.347Z,11.40
2022-10-26T03:07:02.953Z,11.50
2022-10-26T03:09:29.574Z,11.50
2022-10-26T03:11:56.193Z,11.50
2022-10-26T03:14:22.770Z,11.00
2022-10-26T03:16:49.368Z,11.30
2022-10-26T03:19:15.989Z,11.40
2022-10-26T03:21:42.602Z,11.00
2022-10-26T03:24:09.188Z,11.10
2022-10-26T03:26:35.810Z,11.40
2022-10-26T03:29:02.398Z,11.40
2022-10-26T03:31:29.021Z,11.50
2022-10-26T03:33:55.653Z,11.40
2022-10-26T03:36:22.266Z,11.10
2022-10-26T03:38:48.852Z,11.10
2022-10-26T03:41:15.491Z,11.30
2022-10-26T03:43:42.113Z,11.50
2022-10-26T03:46:09.410Z,11.60
2022-10-26T03:48:36.057Z,11.40
2022-10-26T03:51:02.682Z,11.30
2022-10-26T03:53:29.283Z,11.00
2022-10-26T03:55:55.895Z,11.20
2022-10-26T03:58:22.595Z,11.20
2022-10-26T04:00:49.315Z,11.00
2022-10-26T04:03:15.991Z,11.00
2022-10-26T04:05:42.617Z,11.40
2022-10-26T04:08:09.231Z,11.40
2022-10-26T04:10:35.827Z,11.50
2022-10-26T04:13:02.448Z,11.50
2022-10-26T04:15:29.241Z,11.60
2022-10-26T04:17:55.968Z,11.70
2022-10-26T04:20:22.591Z,11.80
2022-10-26T04:22:49.213Z,11.80
2022-10-26T04:25:15.822Z,11.50
2022-10-26T04:27:42.436Z,11.60
2022-10-26T04:30:09.036Z,11.50
2022-10-26T04:32:35.686Z,11.60
2022-10-26T04:35:02.303Z,11.50
2022-10-26T04:37:28.899Z,11.70
2022-10-26T04:39:55.554Z,11.50
2022-10-26T04:42:22.199Z,11.60
2022-10-26T04:44:48.805Z,11.70
2022-10-26T04:47:15.417Z,11.80
2022-10-26T04:49:42.014Z,11.80
2022-10-26T04:52:08.632Z,11.90
2022-10-26T04:54:35.223Z,11.70
2022-10-26T04:57:01.843Z,11.60
2022-10-26T04:59:28.462Z,11.80
2022-10-26T05:01:55.136Z,11.90
2022-10-26T05:04:21.881Z,11.80
2022-10-26T05:06:48.469Z,11.50
2022-10-26T05:09:15.124Z,11.60
2022-10-26T05:11:41.763Z,11.80
2022-10-26T05:14:08.354Z,11.90
2022-10-26T05:16:34.999Z,11.70
2022-10-26T05:19:01.620Z,11.70
2022-10-26T05:21:28.259Z,11.80
2022-10-26T05:23:54.874Z,11.50
2022-10-26T05:26:21.478Z,11.00
2022-10-26T05:28:48.085Z,11.10
2022-10-26T05:31:14.674Z,11.30
2022-10-26T05:33:41.327Z,11.30
2022-10-26T05:36:07.980Z,11.40
2022-10-26T05:38:34.665Z,11.50
2022-10-26T05:41:01.326Z,11.40
2022-10-26T05:43:27.968Z,11.60
2022-10-26T05:45:54.568Z,11.70
2022-10-26T05:48:21.184Z,11.70
2022-10-26T05:50:47.782Z,11.80
2022-10-26T05:53:14.401Z,11.90
2022-10-26T05:55:41.574Z,11.70
2022-10-26T05:58:08.205Z,11.80
2022-10-26T06:00:35.009Z,11.80
2022-10-26T06:03:01.634Z,12.10
2022-10-26T06:05:28.255Z,12.20
2022-10-26T06:07:54.844Z,12.40
2022-10-26T06:10:21.458Z,12.60
2022-10-26T06:12:48.400Z,12.20
2022-10-26T06:15:15.306Z,12.00
2022-10-26T06:17:42.106Z,12.20
2022-10-26T06:20:08.830Z,12.50
2022-10-26T06:22:35.482Z,12.50
2022-10-26T06:25:02.103Z,12.80
2022-10-26T06:27:28.701Z,12.90
2022-10-26T06:29:55.318Z,12.70
2022-10-26T06:32:21.923Z,12.80
2022-10-26T06:34:48.599Z,12.80
2022-10-26T06:37:15.228Z,13.00
2022-10-26T06:39:41.839Z,13.20
2022-10-26T06:42:08.488Z,13.30
2022-10-26T06:44:35.108Z,13.40
2022-10-26T06:47:01.743Z,13.40
2022-10-26T06:49:28.366Z,13.00
2022-10-26T06:51:55.019Z,13.10
2022-10-26T06:54:21.608Z,13.10
2022-10-26T06:56:48.288Z,13.10
2022-10-26T06:59:14.894Z,13.40
2022-10-26T07:01:41.617Z,13.50
2022-10-26T07:04:08.327Z,13.40
2022-10-26T07:06:36.900Z,13.60
2022-10-26T07:09:05.815Z,13.70
2022-10-26T07:11:32.520Z,13.80
2022-10-26T07:13:59.148Z,14.00
2022-10-26T07:16:25.749Z,14.10
2022-10-26T07:18:52.425Z,14.20
2022-10-26T07:21:19.036Z,14.10
2022-10-26T07:23:45.620Z,14.20
2022-10-26T07:26:12.278Z,14.30
2022-10-26T07:28:38.871Z,14.40
2022-10-26T07:31:05.521Z,14.00
2022-10-26T07:33:32.148Z,13.90
2022-10-26T07:35:58.772Z,14.10
2022-10-26T07:38:25.614Z,14.50
2022-10-26T07:40:52.206Z,14.90
2022-10-26T07:43:18.805Z,15.10
2022-10-26T07:45:45.427Z,15.20
2022-10-26T07:48:12.068Z,15.10
2022-10-26T07:50:38.685Z,14.60
2022-10-26T07:53:05.305Z,14.60
2022-10-26T07:55:31.898Z,14.50
2022-10-26T07:57:58.687Z,14.50
2022-10-26T08:00:25.438Z,14.80
2022-10-26T08:02:52.090Z,14.80
2022-10-26T08:05:18.727Z,14.90
2022-10-26T08:07:45.659Z,15.20
2022-10-26T08:10:12.322Z,15.10
2022-10-26T08:12:38.916Z,15.30
2022-10-26T08:15:05.558Z,15.50
2022-10-26T08:17:32.194Z,15.50
2022-10-26T08:19:58.795Z,14.90
2022-10-26T08:22:25.414Z,14.80
2022-10-26T08:24:52.017Z,14.80
2022-10-26T08:27:18.652Z,14.80
2022-10-26T08:29:45.254Z,14.90
2022-10-26T08:32:11.891Z,14.90
2022-10-26T08:34:38.503Z,14.70
2022-10-26T08:37:05.130Z,14.90
2022-10-26T08:39:31.769Z,14.90
2022-10-26T08:41:58.416Z,15.00
2022-10-26T08:44:25.038Z,15.20
2022-10-26T08:46:51.641Z,15.40
2022-10-26T08:49:18.264Z,15.60
2022-10-26T08:51:44.866Z,15.40
2022-10-26T08:54:11.500Z,15.50
2022-10-26T08:56:38.089Z,15.20
2022-10-26T08:59:04.717Z,15.30
2022-10-26T09:01:31.380Z,15.40
2022-10-26T09:03:58.075Z,15.60
2022-10-26T09:06:24.709Z,15.40
2022-10-26T09:08:51.342Z,15.10
2022-10-26T09:11:17.983Z,15.30
2022-10-26T09:13:44.623Z,15.60
2022-10-26T09:16:11.224Z,15.40
2022-10-26T09:18:37.939Z,15.30
2022-10-26T09:21:04.590Z,15.20
2022-10-26T09:23:31.177Z,15.90
2022-10-26T09:25:57.846Z,16.00
2022-10-26T09:28:24.434Z,15.90
2022-10-26T09:30:51.107Z,16.10
2022-10-26T09:33:17.742Z,16.30
2022-10-26T09:35:44.367Z,16.40
2022-10-26T09:38:10.968Z,16.60
2022-10-26T09:40:37.588Z,16.80
2022-10-26T09:43:04.211Z,17.10
2022-10-26T09:45:30.857Z,17.10
2022-10-26T09:47:57.463Z,17.20
2022-10-26T09:50:24.090Z,17.10
2022-10-26T09:52:51.008Z,17.10
2022-10-26T09:55:17.858Z,17.40
2022-10-26T09:57:44.510Z,17.60
2022-10-26T10:00:11.128Z,18.00
2022-10-26T10:02:37.798Z,18.10
2022-10-26T10:05:04.494Z,18.00
2022-10-26T10:07:31.116Z,17.70
2022-10-26T10:09:57.728Z,17.70
2022-10-26T10:12:24.327Z,17.80
2022-10-26T10:14:50.964Z,17.90
2022-10-26T10:19:49.043Z,18.50
2022-10-26T10:22:15.661Z,18.80
2022-10-26T10:24:42.419Z,19.00
2022-10-26T10:27:09.027Z,19.20
2022-10-26T10:29:35.641Z,19.30
2022-10-26T10:32:02.315Z,19.20
2022-10-26T10:34:28.903Z,19.40
2022-10-26T10:36:55.525Z,19.50
2022-10-26T10:39:22.171Z,19.70
2022-10-26T10:41:48.863Z,19.90
2022-10-26T10:44:15.548Z,19.60
2022-10-26T10:46:42.142Z,19.80
2022-10-26T10:49:08.786Z,20.20
2022-10-26T10:51:35.407Z,19.90
2022-10-26T10:54:02.033Z,20.10
2022-10-26T10:56:28.659Z,20.10
2022-10-26T10:58:55.262Z,20.00
2022-10-26T11:01:22.179Z,19.90
2022-10-26T11:03:48.850Z,20.20
2022-10-26T11:06:15.503Z,20.50
2022-10-26T11:08:42.124Z,20.60
2022-10-26T11:11:08.724Z,20.40
2022-10-26T11:13:35.362Z,20.20
2022-10-26T11:16:02.011Z,20.60
2022-10-26T11:18:28.602Z,20.90
2022-10-26T11:20:55.280Z,21.40
2022-10-26T11:23:21.897Z,20.90
2022-10-26T11:25:48.519Z,20.80
2022-10-26T11:28:15.137Z,20.90
2022-10-26T11:30:41.776Z,20.80
2022-10-26T11:33:08.392Z,20.80
2022-10-26T11:35:35.004Z,21.00
2022-10-26T11:38:01.658Z,21.10
2022-10-26T11:40:28.302Z,21.20
2022-10-26T11:42:54.940Z,21.00
2022-10-26T11:45:21.536Z,21.30
2022-10-26T11:47:48.507Z,21.80
2022-10-26T11:50:17.399Z,21.90
2022-10-26T11:52:44.391Z,21.20
2022-10-26T11:55:11.007Z,21.10
2022-10-26T11:57:37.603Z,21.00
2022-10-26T12:00:04.249Z,21.30
2022-10-26T12:02:30.868Z,21.80
2022-10-26T12:04:57.796Z,21.80
2022-10-26T12:07:24.385Z,21.90
2022-10-26T12:09:51.005Z,22.30
2022-10-26T12:12:17.643Z,22.50
2022-10-26T12:14:44.259Z,22.40
2022-10-26T12:17:10.870Z,22.50
2022-10-26T12:19:37.485Z,22.60
2022-10-26T12:22:04.094Z,22.90
2022-10-26T12:24:30.732Z,22.60
2022-10-26T12:26:57.351Z,22.70
2022-10-26T12:29:23.944Z,22.60
2022-10-26T12:31:50.567Z,22.50
2022-10-26T12:34:17.169Z,22.80
2022-10-26T12:36:43.781Z,22.60
2022-10-26T12:39:10.383Z,22.20
2022-10-26T12:44:21.240Z,22.20
2022-10-26T12:46:47.860Z,22.10
2022-10-26T12:49:14.496Z,22.10
2022-10-26T12:51:41.106Z,21.70
2022-10-26T12:54:07.726Z,21.70
2022-10-26T12:56:34.326Z,21.60
2022-10-26T12:59:04.478Z,21.60
2022-10-26T13:01:31.657Z,21.40
2022-10-26T13:03:58.473Z,21.10
2022-10-26T13:06:25.085Z,20.90
2022-10-26T13:08:56.239Z,21.00
2022-10-26T13:11:25.583Z,21.10
2022-10-26T13:13:52.193Z,21.40
2022-10-26T13:16:18.812Z,21.30
2022-10-26T13:18:45.428Z,21.20
2022-10-26T13:21:12.053Z,21.20
2022-10-26T13:23:38.675Z,21.00
2022-10-26T13:26:05.266Z,20.60
2022-10-26T13:28:31.873Z,20.40
2022-10-26T13:30:58.458Z,20.30
2022-10-26T13:33:25.088Z,20.40
2022-10-26T13:35:51.707Z,20.70
2022-10-26T13:38:18.323Z,20.80
2022-10-26T13:40:44.951Z,20.80
2022-10-26T13:43:11.613Z,20.60
2022-10-26T13:45:38.211Z,20.50
2022-10-26T13:48:04.837Z,20.50
2022-10-26T13:50:32.211Z,20.80
2022-10-26T13:52:58.941Z,21.10
2022-10-26T13:55:25.580Z,21.10
2022-10-26T13:57:52.181Z,20.90
2022-10-26T14:00:18.814Z,20.90
2022-10-26T14:02:45.469Z,20.70
2022-10-26T14:05:12.085Z,20.70
2022-10-26T14:07:38.704Z,20.30
2022-10-26T14:10:05.483Z,20.50
2022-10-26T14:12:32.155Z,20.60
2022-10-26T14:14:58.779Z,20.30
2022-10-26T14:17:25.412Z,20.30
2022-10-26T14:19:52.001Z,20.40
2022-10-26T14:22:22.908Z,20.50
2022-10-26T14:24:49.985Z,20.60
2022-10-26T14:27:16.647Z,20.70
2022-10-26T14:29:46.911Z,20.10
2022-10-26T14:32:16.602Z,20.10
2022-10-26T14:34:43.318Z,20.30
2022-10-26T14:37:09.913Z,20.30
2022-10-26T14:39:36.540Z,20.30
2022-10-26T14:42:03.152Z,20.70
2022-10-26T14:44:29.761Z,20.70
2022-10-26T14:46:56.348Z,20.80
2022-10-26T14:49:23.174Z,20.90
2022-10-26T14:51:49.779Z,21.00
2022-10-26T14:54:16.455Z,21.10
2022-10-26T14:56:43.099Z,21.30
2022-10-26T14:59:09.703Z,21.10
2022-10-26T15:01:36.864Z,21.10
2022-10-26T15:04:03.636Z,20.90
2022-10-26T15:06:30.257Z,20.80
2022-10-26T15:08:57.527Z,20.70
2022-10-26T15:11:24.228Z,20.60
2022-10-26T15:13:50.824Z,20.60
2022-10-26T15:16:17.466Z,20.60
2022-10-26T15:18:44.073Z,20.60
2022-10-26T15:21:10.736Z,20.50
2022-10-26T15:23:37.357Z,20.50
2022-10-26T15:26:03.992Z,20.50
2022-10-26T15:28:30.615Z,20.10
2022-10-26T15:31:00.556Z,19.80
2022-10-26T15:33:27.674Z,19.70
2022-10-26T15:35:54.291Z,19.80
2022-10-26T15:38:20.909Z,19.60
2022-10-26T15:40:47.518Z,19.70
2022-10-26T15:43:14.150Z,19.50
2022-10-26T15:45:40.806Z,19.20
2022-10-26T15:48:07.449Z,19.10
2022-10-26T15:50:35.612Z,18.90
2022-10-26T15:53:04.449Z,18.90
2022-10-26T15:55:31.074Z,19.20
2022-10-26T15:57:57.707Z,19.30
2022-10-26T16:00:24.557Z,19.20
2022-10-26T16:02:51.158Z,19.20
2022-10-26T16:05:17.811Z,19.10
2022-10-26T16:07:44.519Z,18.80
2022-10-26T16:10:11.118Z,18.50
2022-10-26T16:12:38.479Z,18.60
2022-10-26T16:15:06.102Z,18.70
2022-10-26T16:17:33.139Z,18.80
2022-10-26T16:19:59.780Z,18.70
2022-10-26T16:22:26.405Z,18.30
2022-10-26T16:24:53.009Z,18.10
2022-10-26T16:27:19.687Z,18.10
2022-10-26T16:29:46.330Z,18.10
2022-10-26T16:32:12.943Z,18.10
2022-10-26T16:34:39.560Z,18.10
2022-10-26T16:37:06.158Z,18.00
2022-10-26T16:39:32.767Z,18.00
2022-10-26T16:41:59.384Z,17.80
2022-10-26T16:44:25.979Z,17.60
2022-10-26T16:46:52.606Z,17.50
2022-10-26T16:49:19.265Z,17.10
2022-10-26T16:51:45.926Z,16.90
2022-10-26T16:54:12.561Z,17.30
2022-10-26T16:56:39.175Z,17.50
2022-10-26T16:59:05.788Z,17.00
2022-10-26T17:01:32.568Z,16.90
2022-10-26T17:03:59.351Z,16.60
2022-10-26T17:06:25.991Z,16.50
2022-10-26T17:08:52.662Z,16.90
2022-10-26T17:11:19.262Z,17.20
2022-10-26T17:13:45.929Z,17.30
2022-10-26T17:16:12.546Z,17.30
2022-10-26T17:18:39.158Z,17.30
2022-10-26T17:21:08.588Z,17.20
2022-10-26T17:23:35.196Z,16.70
2022-10-26T17:26:01.829Z,16.80
2022-10-26T17:28:28.469Z,16.90
2022-10-26T17:30:55.092Z,17.00
2022-10-26T17:33:21.751Z,17.00
2022-10-26T17:35:48.351Z,17.00
2022-10-26T17:38:14.950Z,16.50
2022-10-26T17:40:41.574Z,16.30
2022-10-26T17:43:08.195Z,16.10
2022-10-26T17:45:34.855Z,15.80
2022-10-26T17:48:01.457Z,16.10
2022-10-26T17:50:28.199Z,16.30
2022-10-26T17:52:54.807Z,16.00
2022-10-26T17:55:21.610Z,16.20
2022-10-26T17:57:48.465Z,16.40
2022-10-26T18:00:15.281Z,16.50
2022-10-26T18:02:42.297Z,16.50
2022-10-26T18:05:09.222Z,16.30
2022-10-26T18:07:35.893Z,16.30
2022-10-26T18:10:14.066Z,15.90
2022-10-26T18:12:49.477Z,16.00
2022-10-26T18:15:16.351Z,16.20
2022-10-26T18:17:42.949Z,16.20
2022-10-26T18:20:09.596Z,15.70
2022-10-26T18:22:36.213Z,16.00
2022-10-26T18:25:02.850Z,16.20
2022-10-26T18:27:29.474Z,16.10
2022-10-26T18:29:56.099Z,16.20
2022-10-26T18:32:22.686Z,15.90
2022-10-26T18:34:49.355Z,16.20
2022-10-26T18:37:16.028Z,16.20
2022-10-26T18:39:42.620Z,16.20
2022-10-26T18:42:09.271Z,16.40
2022-10-26T18:44:35.875Z,16.40
2022-10-26T18:47:02.511Z,16.30
2022-10-26T18:49:29.162Z,16.40
2022-10-26T18:51:55.823Z,16.40
2022-10-26T18:54:22.452Z,16.50
2022-10-26T18:56:49.057Z,16.60
2022-10-26T18:59:15.704Z,16.60
2022-10-26T19:01:42.698Z,16.20
2022-10-26T19:04:09.576Z,15.90
2022-10-26T19:06:36.273Z,15.60
2022-10-26T19:09:02.977Z,16.00
2022-10-26T19:11:29.579Z,16.30
2022-10-26T19:13:56.231Z,16.40
2022-10-26T19:16:43.911Z,16.20
2022-10-26T19:19:09.515Z,16.20
2022-10-26T19:21:36.171Z,15.80
2022-10-26T19:24:03.163Z,15.80
2022-10-26T19:26:34.235Z,16.00
2022-10-26T19:29:01.950Z,16.30
2022-10-26T19:31:28.670Z,16.50
2022-10-26T19:33:55.317Z,16.50
2022-10-26T19:36:21.959Z,16.60
2022-10-26T19:38:48.569Z,16.30
2022-10-26T19:41:15.257Z,16.40
2022-10-26T19:43:41.867Z,16.60
2022-10-26T19:46:08.507Z,16.50
2022-10-26T19:48:35.234Z,16.60
2022-10-26T19:51:01.874Z,16.60
2022-10-26T19:53:28.515Z,16.50
2022-10-26T19:55:55.143Z,16.50
2022-10-26T19:58:21.817Z,16.50
2022-10-26T20:00:48.477Z,16.40
2022-10-26T20:03:15.190Z,16.00
2022-10-26T20:05:41.958Z,16.00
2022-10-26T20:08:08.585Z,15.80
2022-10-26T20:10:35.201Z,15.50
2022-10-26T20:13:01.834Z,15.90
2022-10-26T20:15:28.467Z,16.10
2022-10-26T20:17:55.095Z,15.80
2022-10-26T20:20:21.705Z,15.90
2022-10-26T20:22:48.924Z,16.00
2022-10-26T20:25:15.760Z,16.20
2022-10-26T20:27:42.360Z,16.20
2022-10-26T20:30:08.996Z,16.30
2022-10-26T20:32:35.612Z,16.20
2022-10-26T20:35:02.218Z,15.50
2022-10-26T20:37:28.852Z,15.80
2022-10-26T20:39:55.478Z,15.80
2022-10-26T20:42:22.098Z,16.00
2022-10-26T20:44:48.700Z,15.60
2022-10-26T20:47:15.368Z,15.80
2022-10-26T20:49:44.075Z,16.00
2022-10-26T20:52:25.498Z,15.80
2022-10-26T20:54:52.132Z,15.90
2022-10-26T20:57:18.761Z,15.90
2022-10-26T20:59:45.360Z,15.80
2022-10-26T21:02:12.004Z,15.90
2022-10-26T21:04:38.682Z,15.70
2022-10-26T21:07:05.273Z,15.70
2022-10-26T21:09:34.248Z,15.80
2022-10-26T21:12:03.510Z,16.00
2022-10-26T21:14:30.123Z,16.10
2022-10-26T21:16:56.720Z,16.10
2022-10-26T21:19:23.353Z,16.10
2022-10-26T21:21:50.015Z,16.10
2022-10-26T21:24:16.622Z,16.00
2022-10-26T21:26:43.236Z,15.70
2022-10-26T21:29:09.832Z,15.50
2022-10-26T21:31:36.454Z,15.30
2022-10-26T21:36:47.298Z,14.90
2022-10-26T21:39:13.911Z,15.20
2022-10-26T21:41:40.654Z,15.60
2022-10-26T21:44:09.142Z,15.80
2022-10-26T21:46:36.984Z,15.90
2022-10-26T21:49:03.605Z,15.90
2022-10-26T21:51:30.223Z,15.90
2022-10-26T21:53:56.827Z,15.70
2022-10-26T21:56:23.469Z,15.50
2022-10-26T21:58:50.053Z,15.70
2022-10-26T22:01:16.743Z,15.60
2022-10-26T22:03:43.432Z,15.70
2022-10-26T22:06:10.086Z,15.80
2022-10-26T22:08:37.101Z,15.90
2022-10-26T22:11:03.698Z,15.90
2022-10-26T22:13:30.309Z,15.90
2022-10-26T22:15:56.933Z,15.80
2022-10-26T22:18:23.514Z,15.80
2022-10-26T22:20:50.123Z,15.60
2022-10-26T22:23:16.742Z,15.60
2022-10-26T22:25:43.374Z,15.70
2022-10-26T22:28:09.989Z,15.60
2022-10-26T22:30:36.609Z,15.50
2022-10-26T22:33:03.273Z,15.20
2022-10-26T22:35:30.193Z,14.80
2022-10-26T22:37:56.924Z,15.10
2022-10-26T22:40:23.553Z,15.00
2022-10-26T22:42:50.472Z,15.10
2022-10-26T22:45:17.228Z,15.30
2022-10-26T22:47:43.867Z,14.90
2022-10-26T22:50:10.477Z,15.00
2022-10-26T22:52:37.111Z,15.10
2022-10-26T22:55:03.785Z,15.00
2022-10-26T22:57:30.723Z,15.10
2022-10-26T22:59:57.331Z,15.00
2022-10-26T23:02:23.958Z,14.70
2022-10-26T23:04:50.602Z,14.80
2022-10-26T23:07:17.198Z,14.90
2022-10-26T23:09:43.787Z,15.00
2022-10-26T23:12:10.420Z,15.10
2022-10-26T23:14:37.035Z,15.10
2022-10-26T23:17:03.638Z,15.10
2022-10-26T23:19:30.297Z,15.10
2022-10-26T23:21:56.945Z,14.90
2022-10-26T23:24:23.618Z,14.50
2022-10-26T23:26:50.274Z,14.20
2022-10-26T23:29:16.931Z,14.10
2022-10-26T23:31:43.552Z,14.00
2022-10-26T23:34:10.148Z,14.40
2022-10-26T23:36:36.803Z,14.50
2022-10-26T23:39:03.397Z,14.70
2022-10-26T23:41:30.022Z,14.60
2022-10-26T23:43:56.616Z,14.50
2022-10-26T23:46:23.244Z,14.40
2022-10-26T23:48:49.891Z,14.50
2022-10-26T23:51:16.494Z,14.50
2022-10-26T23:53:43.120Z,14.60
2022-10-26T23:56:09.734Z,14.60
2022-10-26T23:58:36.348Z,14.50
